sensor_id;sensor_type;location;lat;lon;timestamp;temperature;humidity
48575;DHT22;34352;51.084;3.712;2023-05-27T07:32:10;20.70;99.90
48575;DHT22;34352;51.084;3.712;2023-05-27T07:34:35;21.20;99.90
48575;DHT22;34352;51.084;3.712;2023-05-27T07:37:01;22.20;99.90
48575;DHT22;34352;51.084;3.712;2023-05-27T07:39:26;23.20;99.90
48575;DHT22;34352;51.084;3.712;2023-05-27T07:41:52;22.60;99.90
48575;DHT22;34352;51.084;3.712;2023-05-27T07:44:18;22.80;99.90
48575;DHT22;34352;51.084;3.712;2023-05-27T07:46:44;23.40;99.90
48575;DHT22;34352;51.084;3.712;2023-05-27T07:49:12;23.00;99.90
48575;DHT22;34352;51.084;3.712;2023-05-27T07:51:37;23.70;99.90
48575;DHT22;34352;51.084;3.712;2023-05-27T07:54:03;23.80;99.90
48575;DHT22;34352;51.084;3.712;2023-05-27T07:56:29;24.30;99.90
48575;DHT22;34352;51.084;3.712;2023-05-27T07:58:55;24.60;99.90
48575;DHT22;34352;51.084;3.712;2023-05-27T08:01:20;24.70;99.90
48575;DHT22;34352;51.084;3.712;2023-05-27T08:03:46;24.50;99.90
48575;DHT22;34352;51.084;3.712;2023-05-27T08:06:11;23.40;99.90
48575;DHT22;34352;51.084;3.712;2023-05-27T08:08:37;23.70;99.90
48575;DHT22;34352;51.084;3.712;2023-05-27T08:11:03;23.40;99.90
48575;DHT22;34352;51.084;3.712;2023-05-27T08:13:28;23.60;99.90
48575;DHT22;34352;51.084;3.712;2023-05-27T08:15:54;23.80;99.90
48575;DHT22;34352;51.084;3.712;2023-05-27T08:18:19;24.10;99.90
48575;DHT22;34352;51.084;3.712;2023-05-27T08:20:45;24.10;99.90
48575;DHT22;34352;51.084;3.712;2023-05-27T08:23:12;22.90;99.90
48575;DHT22;34352;51.084;3.712;2023-05-27T08:25:39;23.00;99.90
48575;DHT22;34352;51.084;3.712;2023-05-27T08:28:05;24.20;99.90
48575;DHT22;34352;51.084;3.712;2023-05-27T08:30:31;23.90;99.90
48575;DHT22;34352;51.084;3.712;2023-05-27T08:32:57;24.20;99.90
48575;DHT22;34352;51.084;3.712;2023-05-27T08:35:23;24.50;99.90
48575;DHT22;34352;51.084;3.712;2023-05-27T08:37:49;24.20;99.90
48575;DHT22;34352;51.084;3.712;2023-05-27T08:40:15;23.70;99.90
48575;DHT22;34352;51.084;3.712;2023-05-27T08:42:41;24.00;99.90
48575;DHT22;34352;51.084;3.712;2023-05-27T08:45:08;24.30;99.90
48575;DHT22;34352;51.084;3.712;2023-05-27T08:47:33;25.50;99.90
48575;DHT22;34352;51.084;3.712;2023-05-27T08:50:00;26.20;99.90
48575;DHT22;34352;51.084;3.712;2023-05-27T08:52:28;26.00;1.00
48575;DHT22;34352;51.084;3.712;2023-05-27T08:54:55;26.90;1.00
48575;DHT22;34352;51.084;3.712;2023-05-27T08:57:22;26.70;1.00
48575;DHT22;34352;51.084;3.712;2023-05-27T08:59:52;26.40;1.00
48575;DHT22;34352;51.084;3.712;2023-05-27T09:02:18;25.00;1.00
48575;DHT22;34352;51.084;3.712;2023-05-27T09:04:45;25.70;1.00
48575;DHT22;34352;51.084;3.712;2023-05-27T09:07:12;26.40;1.00
48575;DHT22;34352;51.084;3.712;2023-05-27T09:09:39;26.20;1.00
48575;DHT22;34352;51.084;3.712;2023-05-27T09:12:05;26.20;1.00
48575;DHT22;34352;51.084;3.712;2023-05-27T09:14:31;25.60;1.00
48575;DHT22;34352;51.084;3.712;2023-05-27T09:16:57;26.00;1.00
48575;DHT22;34352;51.084;3.712;2023-05-27T09:19:22;25.50;1.00
48575;DHT22;34352;51.084;3.712;2023-05-27T09:21:51;25.20;1.00
48575;DHT22;34352;51.084;3.712;2023-05-27T09:24:22;25.60;1.00
48575;DHT22;34352;51.084;3.712;2023-05-27T09:26:50;26.00;1.00
48575;DHT22;34352;51.084;3.712;2023-05-27T09:29:19;24.90;1.00
48575;DHT22;34352;51.084;3.712;2023-05-27T09:36:55;27.50;1.00
48575;DHT22;34352;51.084;3.712;2023-05-27T09:39:24;28.30;1.00
48575;DHT22;34352;51.084;3.712;2023-05-27T09:41:53;28.10;1.00
48575;DHT22;34352;51.084;3.712;2023-05-27T09:47:17;28.60;1.00
48575;DHT22;34352;51.084;3.712;2023-05-27T09:49:59;29.00;1.00
48575;DHT22;34352;51.084;3.712;2023-05-27T09:52:30;29.00;1.00
48575;DHT22;34352;51.084;3.712;2023-05-27T09:58:11;27.90;1.00
48575;DHT22;34352;51.084;3.712;2023-05-27T10:00:48;29.30;1.00
48575;DHT22;34352;51.084;3.712;2023-05-27T10:03:31;29.10;1.00
48575;DHT22;34352;51.084;3.712;2023-05-27T10:06:02;28.50;1.00
48575;DHT22;34352;51.084;3.712;2023-05-27T10:08:45;29.60;1.00
48575;DHT22;34352;51.084;3.712;2023-05-27T10:11:14;30.50;1.00
48575;DHT22;34352;51.084;3.712;2023-05-27T10:13:40;30.10;1.00
48575;DHT22;34352;51.084;3.712;2023-05-27T10:16:18;29.60;1.00
48575;DHT22;34352;51.084;3.712;2023-05-27T10:19:02;30.20;1.00
48575;DHT22;34352;51.084;3.712;2023-05-27T10:21:41;31.10;1.00
48575;DHT22;34352;51.084;3.712;2023-05-27T10:24:09;28.70;1.00
48575;DHT22;34352;51.084;3.712;2023-05-27T10:26:36;29.70;1.00
48575;DHT22;34352;51.084;3.712;2023-05-27T10:29:08;28.80;1.00
48575;DHT22;34352;51.084;3.712;2023-05-27T10:31:51;30.20;1.00
48575;DHT22;34352;51.084;3.712;2023-05-27T10:34:19;30.20;1.00
48575;DHT22;34352;51.084;3.712;2023-05-27T10:36:47;30.70;1.00
48575;DHT22;34352;51.084;3.712;2023-05-27T10:42:20;29.80;1.00
48575;DHT22;34352;51.084;3.712;2023-05-27T10:45:06;30.30;1.00
48575;DHT22;34352;51.084;3.712;2023-05-27T10:47:45;28.80;1.00
48575;DHT22;34352;51.084;3.712;2023-05-27T10:50:12;28.60;1.00
48575;DHT22;34352;51.084;3.712;2023-05-27T10:52:40;28.60;1.00
48575;DHT22;34352;51.084;3.712;2023-05-27T10:58:10;29.70;1.00
48575;DHT22;34352;51.084;3.712;2023-05-27T11:06:28;30.30;1.00
48575;DHT22;34352;51.084;3.712;2023-05-27T11:11:26;31.50;1.00
48575;DHT22;34352;51.084;3.712;2023-05-27T11:13:53;31.70;1.00
48575;DHT22;34352;51.084;3.712;2023-05-27T11:16:20;30.50;1.00
48575;DHT22;34352;51.084;3.712;2023-05-27T11:18:46;29.90;1.00
48575;DHT22;34352;51.084;3.712;2023-05-27T11:21:15;29.30;1.00
48575;DHT22;34352;51.084;3.712;2023-05-27T11:26:42;28.60;1.00
48575;DHT22;34352;51.084;3.712;2023-05-27T11:29:07;29.50;1.00
48575;DHT22;34352;51.084;3.712;2023-05-27T11:34:16;30.50;1.00
48575;DHT22;34352;51.084;3.712;2023-05-27T11:36:44;29.60;1.00
48575;DHT22;34352;51.084;3.712;2023-05-27T11:39:18;30.30;1.00
48575;DHT22;34352;51.084;3.712;2023-05-27T11:41:47;31.40;1.00
48575;DHT22;34352;51.084;3.712;2023-05-27T11:44:14;32.30;1.00
48575;DHT22;34352;51.084;3.712;2023-05-27T11:46:43;32.80;1.00
48575;DHT22;34352;51.084;3.712;2023-05-27T11:49:14;33.70;1.00
48575;DHT22;34352;51.084;3.712;2023-05-27T11:51:41;33.60;1.00
48575;DHT22;34352;51.084;3.712;2023-05-27T11:57:07;32.90;1.00
48575;DHT22;34352;51.084;3.712;2023-05-27T11:59:40;31.60;1.00
48575;DHT22;34352;51.084;3.712;2023-05-27T12:02:09;31.70;1.00
48575;DHT22;34352;51.084;3.712;2023-05-27T12:04:49;32.80;1.00
48575;DHT22;34352;51.084;3.712;2023-05-27T12:07:14;32.50;1.00
48575;DHT22;34352;51.084;3.712;2023-05-27T12:09:42;32.20;1.00
48575;DHT22;34352;51.084;3.712;2023-05-27T12:20:53;32.80;1.00
48575;DHT22;34352;51.084;3.712;2023-05-27T12:23:20;33.30;1.00
48575;DHT22;34352;51.084;3.712;2023-05-27T12:25:48;33.20;1.00
48575;DHT22;34352;51.084;3.712;2023-05-27T12:34:09;31.40;1.00
48575;DHT22;34352;51.084;3.712;2023-05-27T12:36:39;32.30;1.00
48575;DHT22;34352;51.084;3.712;2023-05-27T12:39:08;31.20;1.00
48575;DHT22;34352;51.084;3.712;2023-05-27T12:44:37;32.10;1.00
48575;DHT22;34352;51.084;3.712;2023-05-27T12:47:09;31.90;1.00
48575;DHT22;34352;51.084;3.712;2023-05-27T12:49:35;32.30;1.00
48575;DHT22;34352;51.084;3.712;2023-05-27T12:52:08;32.30;1.00
48575;DHT22;34352;51.084;3.712;2023-05-27T12:54:46;32.30;1.00
48575;DHT22;34352;51.084;3.712;2023-05-27T12:57:19;32.40;1.00
48575;DHT22;34352;51.084;3.712;2023-05-27T13:02:17;33.10;1.00
48575;DHT22;34352;51.084;3.712;2023-05-27T13:12:48;31.70;1.00
48575;DHT22;34352;51.084;3.712;2023-05-27T13:24:27;30.60;1.00
48575;DHT22;34352;51.084;3.712;2023-05-27T13:26:54;30.50;1.00
48575;DHT22;34352;51.084;3.712;2023-05-27T13:29:20;30.60;1.00
48575;DHT22;34352;51.084;3.712;2023-05-27T13:31:58;30.40;1.00
48575;DHT22;34352;51.084;3.712;2023-05-27T13:34:24;30.50;1.00
48575;DHT22;34352;51.084;3.712;2023-05-27T13:36:50;30.40;1.00
48575;DHT22;34352;51.084;3.712;2023-05-27T13:39:17;30.30;1.00
48575;DHT22;34352;51.084;3.712;2023-05-27T13:41:53;30.10;1.00
48575;DHT22;34352;51.084;3.712;2023-05-27T13:44:18;30.50;1.00
48575;DHT22;34352;51.084;3.712;2023-05-27T13:46:45;31.10;1.00
48575;DHT22;34352;51.084;3.712;2023-05-27T13:54:59;29.20;1.00
48575;DHT22;34352;51.084;3.712;2023-05-27T13:59:55;29.30;1.00
48575;DHT22;34352;51.084;3.712;2023-05-27T14:02:22;29.50;1.00
48575;DHT22;34352;51.084;3.712;2023-05-27T14:04:51;29.40;1.00
48575;DHT22;34352;51.084;3.712;2023-05-27T14:07:16;29.00;1.00
48575;DHT22;34352;51.084;3.712;2023-05-27T14:09:47;28.70;1.00
48575;DHT22;34352;51.084;3.712;2023-05-27T14:12:21;28.20;1.00
48575;DHT22;34352;51.084;3.712;2023-05-27T14:14:58;27.40;1.00
48575;DHT22;34352;51.084;3.712;2023-05-27T14:17:24;26.60;1.00
48575;DHT22;34352;51.084;3.712;2023-05-27T14:19:54;26.70;1.00
48575;DHT22;34352;51.084;3.712;2023-05-27T14:22:19;26.20;1.00
48575;DHT22;34352;51.084;3.712;2023-05-27T14:27:42;25.70;1.00
48575;DHT22;34352;51.084;3.712;2023-05-27T14:30:20;25.70;1.00
48575;DHT22;34352;51.084;3.712;2023-05-27T14:32:55;25.90;1.00
48575;DHT22;34352;51.084;3.712;2023-05-27T14:35:31;26.00;1.00
48575;DHT22;34352;51.084;3.712;2023-05-27T14:37:58;26.00;1.00
48575;DHT22;34352;51.084;3.712;2023-05-27T14:40:24;26.10;1.00
48575;DHT22;34352;51.084;3.712;2023-05-27T14:42:57;26.40;1.00
48575;DHT22;34352;51.084;3.712;2023-05-27T14:45:34;25.90;1.00
48575;DHT22;34352;51.084;3.712;2023-05-27T14:50:48;25.90;1.00
48575;DHT22;34352;51.084;3.712;2023-05-27T14:53:14;26.00;1.00
48575;DHT22;34352;51.084;3.712;2023-05-27T14:58:34;26.10;1.00
48575;DHT22;34352;51.084;3.712;2023-05-27T15:01:10;25.80;1.00
48575;DHT22;34352;51.084;3.712;2023-05-27T15:06:39;25.80;1.00
48575;DHT22;34352;51.084;3.712;2023-05-27T15:09:16;25.50;1.00
48575;DHT22;34352;51.084;3.712;2023-05-27T15:11:44;25.30;1.00
48575;DHT22;34352;51.084;3.712;2023-05-27T15:14:12;25.20;1.00
48575;DHT22;34352;51.084;3.712;2023-05-27T15:16:38;25.40;1.00
48575;DHT22;34352;51.084;3.712;2023-05-27T15:19:16;25.50;1.00
48575;DHT22;34352;51.084;3.712;2023-05-27T15:24:40;25.50;1.00
48575;DHT22;34352;51.084;3.712;2023-05-27T15:27:18;25.40;1.00
48575;DHT22;34352;51.084;3.712;2023-05-27T15:32:38;25.10;1.00
48575;DHT22;34352;51.084;3.712;2023-05-27T15:35:05;25.10;1.00
48575;DHT22;34352;51.084;3.712;2023-05-27T15:37:31;25.40;1.00
48575;DHT22;34352;51.084;3.712;2023-05-27T15:39:57;25.60;1.00
48575;DHT22;34352;51.084;3.712;2023-05-27T15:42:23;25.70;1.00
48575;DHT22;34352;51.084;3.712;2023-05-27T15:44:51;25.50;1.00
48575;DHT22;34352;51.084;3.712;2023-05-27T15:53:01;25.10;1.00
48575;DHT22;34352;51.084;3.712;2023-05-27T15:55:26;25.10;1.00
48575;DHT22;34352;51.084;3.712;2023-05-27T15:57:55;25.10;1.00
48575;DHT22;34352;51.084;3.712;2023-05-27T16:00:24;25.10;1.00
48575;DHT22;34352;51.084;3.712;2023-05-27T16:03:07;24.70;1.00
48575;DHT22;34352;51.084;3.712;2023-05-27T16:05:34;24.60;1.00
48575;DHT22;34352;51.084;3.712;2023-05-27T16:13:17;24.90;1.00
48575;DHT22;34352;51.084;3.712;2023-05-27T16:15:44;24.80;1.00
48575;DHT22;34352;51.084;3.712;2023-05-27T16:23:32;24.60;1.00
48575;DHT22;34352;51.084;3.712;2023-05-27T16:26:01;24.50;1.00
48575;DHT22;34352;51.084;3.712;2023-05-27T16:28:28;24.40;1.00
48575;DHT22;34352;51.084;3.712;2023-05-27T16:30:56;24.50;1.00
48575;DHT22;34352;51.084;3.712;2023-05-27T16:33:22;24.60;1.00
48575;DHT22;34352;51.084;3.712;2023-05-27T16:35:47;24.50;1.00
48575;DHT22;34352;51.084;3.712;2023-05-27T16:38:13;24.50;1.00
48575;DHT22;34352;51.084;3.712;2023-05-27T16:40:40;24.60;1.00
48575;DHT22;34352;51.084;3.712;2023-05-27T16:43:07;24.70;1.00
48575;DHT22;34352;51.084;3.712;2023-05-27T16:48:43;24.70;1.00
48575;DHT22;34352;51.084;3.712;2023-05-27T16:51:11;24.30;1.00
48575;DHT22;34352;51.084;3.712;2023-05-27T16:56:40;24.00;1.00
48575;DHT22;34352;51.084;3.712;2023-05-27T16:59:23;24.10;1.00
48575;DHT22;34352;51.084;3.712;2023-05-27T17:04:39;24.00;1.00
48575;DHT22;34352;51.084;3.712;2023-05-27T17:07:06;23.90;1.00
48575;DHT22;34352;51.084;3.712;2023-05-27T17:09:49;23.70;1.00
48575;DHT22;34352;51.084;3.712;2023-05-27T17:12:16;23.50;1.00
48575;DHT22;34352;51.084;3.712;2023-05-27T17:17:31;23.20;1.00
48575;DHT22;34352;51.084;3.712;2023-05-27T17:22:42;23.40;1.00
48575;DHT22;34352;51.084;3.712;2023-05-27T17:25:14;23.60;1.00
48575;DHT22;34352;51.084;3.712;2023-05-27T17:30:38;23.20;1.00
48575;DHT22;34352;51.084;3.712;2023-05-27T17:33:05;23.10;1.00
48575;DHT22;34352;51.084;3.712;2023-05-27T17:35:33;23.00;1.00
48575;DHT22;34352;51.084;3.712;2023-05-27T17:41:03;22.60;1.00
48575;DHT22;34352;51.084;3.712;2023-05-27T17:43:45;22.50;1.00
48575;DHT22;34352;51.084;3.712;2023-05-27T17:46:25;22.40;1.00
48575;DHT22;34352;51.084;3.712;2023-05-27T17:51:19;22.20;1.00
48575;DHT22;34352;51.084;3.712;2023-05-27T17:53:50;22.20;1.00
48575;DHT22;34352;51.084;3.712;2023-05-27T17:59:13;21.90;1.00
48575;DHT22;34352;51.084;3.712;2023-05-27T18:07:10;22.00;1.00
48575;DHT22;34352;51.084;3.712;2023-05-27T18:09:35;21.90;1.00
48575;DHT22;34352;51.084;3.712;2023-05-27T18:12:02;21.90;1.00
48575;DHT22;34352;51.084;3.712;2023-05-27T18:14:36;21.80;1.00
48575;DHT22;34352;51.084;3.712;2023-05-27T18:17:02;21.70;1.00
48575;DHT22;34352;51.084;3.712;2023-05-27T18:25:25;21.30;1.00
48575;DHT22;34352;51.084;3.712;2023-05-27T18:33:09;20.90;1.00
48575;DHT22;34352;51.084;3.712;2023-05-27T18:35:47;21.00;1.00
48575;DHT22;34352;51.084;3.712;2023-05-27T18:38:13;21.00;1.00
48575;DHT22;34352;51.084;3.712;2023-05-27T18:40:47;20.80;1.00
48575;DHT22;34352;51.084;3.712;2023-05-27T18:43:27;20.70;1.00
48575;DHT22;34352;51.084;3.712;2023-05-27T18:48:55;20.50;1.00
48575;DHT22;34352;51.084;3.712;2023-05-27T18:51:20;20.50;1.00
48575;DHT22;34352;51.084;3.712;2023-05-27T18:53:47;20.40;1.00
48575;DHT22;34352;51.084;3.712;2023-05-27T18:56:17;20.40;1.00
48575;DHT22;34352;51.084;3.712;2023-05-27T18:58:48;20.20;1.00
48575;DHT22;34352;51.084;3.712;2023-05-27T19:01:23;20.10;1.00
48575;DHT22;34352;51.084;3.712;2023-05-27T19:03:57;20.10;1.00
48575;DHT22;34352;51.084;3.712;2023-05-27T19:06:23;20.00;1.00
48575;DHT22;34352;51.084;3.712;2023-05-27T19:08:49;19.80;1.00
48575;DHT22;34352;51.084;3.712;2023-05-27T19:11:17;19.70;1.00
48575;DHT22;34352;51.084;3.712;2023-05-27T19:13:44;19.70;1.00
48575;DHT22;34352;51.084;3.712;2023-05-27T19:16:14;19.60;1.00
48575;DHT22;34352;51.084;3.712;2023-05-27T19:18:45;19.50;1.00
48575;DHT22;34352;51.084;3.712;2023-05-27T19:21:15;19.40;1.00
48575;DHT22;34352;51.084;3.712;2023-05-27T19:23:43;19.30;1.00
48575;DHT22;34352;51.084;3.712;2023-05-27T19:26:26;19.40;1.00
48575;DHT22;34352;51.084;3.712;2023-05-27T19:29:01;19.20;1.00
48575;DHT22;34352;51.084;3.712;2023-05-27T19:31:27;19.10;1.00
48575;DHT22;34352;51.084;3.712;2023-05-27T19:34:01;19.00;1.00
48575;DHT22;34352;51.084;3.712;2023-05-27T19:36:45;19.00;1.00
48575;DHT22;34352;51.084;3.712;2023-05-27T19:39:10;18.80;1.00
48575;DHT22;34352;51.084;3.712;2023-05-27T19:41:38;18.70;1.00
48575;DHT22;34352;51.084;3.712;2023-05-27T19:44:15;18.60;1.00
48575;DHT22;34352;51.084;3.712;2023-05-27T19:46:49;18.50;1.00
48575;DHT22;34352;51.084;3.712;2023-05-27T19:52:03;18.30;1.00
48575;DHT22;34352;51.084;3.712;2023-05-27T19:57:19;18.10;1.00
48575;DHT22;34352;51.084;3.712;2023-05-27T19:59:47;18.10;1.00
48575;DHT22;34352;51.084;3.712;2023-05-27T20:02:15;18.00;1.00
48575;DHT22;34352;51.084;3.712;2023-05-27T20:04:46;17.90;1.00
48575;DHT22;34352;51.084;3.712;2023-05-27T20:07:22;17.80;1.00
48575;DHT22;34352;51.084;3.712;2023-05-27T20:09:48;17.70;1.00
48575;DHT22;34352;51.084;3.712;2023-05-27T20:12:16;17.60;1.00
48575;DHT22;34352;51.084;3.712;2023-05-27T20:14:44;17.50;1.00
48575;DHT22;34352;51.084;3.712;2023-05-27T20:17:10;17.50;1.00
48575;DHT22;34352;51.084;3.712;2023-05-27T20:22:33;17.40;1.00
48575;DHT22;34352;51.084;3.712;2023-05-27T20:24:58;17.40;1.00
48575;DHT22;34352;51.084;3.712;2023-05-27T20:27:25;17.30;1.00
48575;DHT22;34352;51.084;3.712;2023-05-27T20:29:52;17.20;1.00
48575;DHT22;34352;51.084;3.712;2023-05-27T20:32:17;17.20;1.00
48575;DHT22;34352;51.084;3.712;2023-05-27T20:34:45;17.00;1.00
48575;DHT22;34352;51.084;3.712;2023-05-27T20:37:13;17.00;1.00
48575;DHT22;34352;51.084;3.712;2023-05-27T20:39:44;16.90;1.00
48575;DHT22;34352;51.084;3.712;2023-05-27T20:42:12;16.90;1.00
48575;DHT22;34352;51.084;3.712;2023-05-27T20:44:39;16.80;1.00
48575;DHT22;34352;51.084;3.712;2023-05-27T20:47:05;16.80;1.00
48575;DHT22;34352;51.084;3.712;2023-05-27T20:49:41;16.70;1.00
48575;DHT22;34352;51.084;3.712;2023-05-27T20:52:09;16.70;1.00
48575;DHT22;34352;51.084;3.712;2023-05-27T20:54:35;16.60;1.00
48575;DHT22;34352;51.084;3.712;2023-05-27T21:00:03;16.50;1.00
48575;DHT22;34352;51.084;3.712;2023-05-27T21:02:47;16.40;1.00
48575;DHT22;34352;51.084;3.712;2023-05-27T21:05:13;16.30;1.00
48575;DHT22;34352;51.084;3.712;2023-05-27T21:07:46;16.40;1.00
48575;DHT22;34352;51.084;3.712;2023-05-27T21:10:15;16.30;1.00
48575;DHT22;34352;51.084;3.712;2023-05-27T21:12:40;16.30;1.00
48575;DHT22;34352;51.084;3.712;2023-05-27T21:15:13;16.20;1.00
48575;DHT22;34352;51.084;3.712;2023-05-27T21:17:39;16.20;1.00
48575;DHT22;34352;51.084;3.712;2023-05-27T21:20:11;16.20;1.00
48575;DHT22;34352;51.084;3.712;2023-05-27T21:22:37;16.20;1.00
48575;DHT22;34352;51.084;3.712;2023-05-27T21:25:06;16.00;1.00
48575;DHT22;34352;51.084;3.712;2023-05-27T21:27:49;16.00;1.00
48575;DHT22;34352;51.084;3.712;2023-05-27T21:30:22;16.00;1.00
48575;DHT22;34352;51.084;3.712;2023-05-27T21:32:55;16.00;1.00
48575;DHT22;34352;51.084;3.712;2023-05-27T21:35:20;15.90;1.00
48575;DHT22;34352;51.084;3.712;2023-05-27T21:38:03;15.80;1.00
48575;DHT22;34352;51.084;3.712;2023-05-27T21:40:31;15.80;1.00
48575;DHT22;34352;51.084;3.712;2023-05-27T21:42:57;15.70;1.00
48575;DHT22;34352;51.084;3.712;2023-05-27T21:45:22;15.70;1.00
48575;DHT22;34352;51.084;3.712;2023-05-27T22:05:08;15.50;1.00
48575;DHT22;34352;51.084;3.712;2023-05-27T22:10:21;15.40;1.00
48575;DHT22;34352;51.084;3.712;2023-05-27T22:16:01;15.30;1.00
